Погода Суляевкана 2 недели

Пензенская область, Россия

25 мая-07 июня
  • 25мая
    Сегодня
    +7°
    +22°
    Ясно и безоблачно
    ВремяПогодаТемператураВлажностьДавлениеВетер, м/сВероятность осадков
    00:00Ясно и безоблачно+6°C70 %757 мм1.8 м/с2 %
    03:00Ясно и безоблачно+5°C74 %757 мм2.0 м/с2 %
    06:00Ясно и безоблачно+9°C61 %758 мм2.5 м/с2 %
    09:00Ясно и безоблачно+16°C36 %757 мм3.2 м/с2 %
    12:00Ясно и безоблачно+19°C32 %757 мм2.9 м/с2 %
    15:00Ясно и безоблачно+21°C32 %755 мм3.0 м/с2 %
    18:00Ясно и безоблачно+21°C39 %754 мм2.3 м/с2 %
    21:00Ясно и безоблачно+13°C63 %753 мм2.4 м/с2 %
  • 26мая
    Воскресенье
    +10°
    +24°
    Ясно и безоблачно
    ВремяПогодаТемператураВлажностьДавлениеВетер, м/сВероятность осадков
    00:00Ясно и безоблачно+10°C60 %753 мм2.3 м/с2 %
    03:00Ясно и безоблачно+8°C69 %752 мм2.1 м/с2 %
    06:00Ясно и безоблачно+11°C64 %752 мм2.7 м/с2 %
    09:00Ясно и безоблачно+19°C41 %752 мм3.6 м/с2 %
    12:00Ясно и безоблачно+22°C31 %751 мм4.6 м/с2 %
    15:00Ясно и безоблачно+24°C30 %750 мм4.6 м/с2 %
    18:00Ясно и безоблачно+22°C37 %749 мм3.2 м/с2 %
    21:00Облачно с прояснениями+16°C59 %750 мм2.8 м/с3 %
  • 27мая
    Понедельник
    +6°
    +20°
    Ясно и безоблачно
    ВремяПогодаТемператураВлажностьДавлениеВетер, м/сВероятность осадков
    00:00Облачно с прояснениями+13°C87 %750 мм3.0 м/с12 %
    03:00Практически безоблачно+12°C92 %751 мм3.5 м/с6 %
    06:00Ясно и безоблачно+12°C76 %753 мм3.8 м/с5 %
    09:00Ясно и безоблачно+16°C46 %754 мм4.1 м/с3 %
    12:00Ясно и безоблачно+19°C36 %754 мм3.6 м/с2 %
    15:00Ясно и безоблачно+20°C33 %754 мм3.3 м/с2 %
    18:00Ясно и безоблачно+18°C36 %753 мм2.8 м/с2 %
    21:00Ясно и безоблачно+14°C53 %754 мм2.5 м/с2 %
  • 28мая
    Вторник
    +8°
    +22°
    Ясно и безоблачно
    ВремяПогодаТемператураВлажностьДавлениеВетер, м/сВероятность осадков
    00:00Ясно и безоблачно+9°C64 %754 мм2.7 м/с2 %
    03:00Ясно и безоблачно+7°C61 %754 мм2.1 м/с2 %
    06:00Ясно и безоблачно+10°C61 %754 мм1.9 м/с2 %
    09:00Ясно и безоблачно+17°C38 %754 мм1.2 м/с2 %
    12:00Ясно и безоблачно+20°C36 %754 мм0.5 м/с2 %
    15:00Ясно и безоблачно+22°C34 %753 мм0.9 м/с2 %
    18:00Ясно и безоблачно+21°C35 %751 мм1.3 м/с2 %
    21:00Ясно и безоблачно+17°C45 %751 мм1.1 м/с2 %
  • 29мая
    Среда
    +11°
    +25°
    Ясно и безоблачно
    ВремяПогодаТемператураВлажностьДавлениеВетер, м/сВероятность осадков
    00:00Ясно и безоблачно+11°C71 %750 мм2.2 м/с2 %
    03:00Ясно и безоблачно+9°C71 %750 мм2.3 м/с2 %
    06:00Ясно и безоблачно+12°C65 %749 мм0.7 м/с2 %
    09:00Ясно и безоблачно+21°C38 %750 мм0.7 м/с2 %
    12:00Ясно и безоблачно+23°C32 %749 мм1.0 м/с2 %
    15:00Ясно и безоблачно+24°C28 %748 мм1.1 м/с4 %
    18:00Ясно и безоблачно+24°C35 %747 мм0.5 м/с2 %
    21:00Ясно и безоблачно+18°C51 %747 мм2.1 м/с2 %
Мы используем cookies
Соглашаюсь